createdAt,value
2023-05-04T00:03:31.242Z,101626.28
2023-05-04T00:08:33.802Z,101633.22
2023-05-04T00:13:36.425Z,101631.38
2023-05-04T00:18:39.566Z,101614.94
2023-05-04T00:23:42.349Z,101614.72
2023-05-04T00:28:44.968Z,101615.00
2023-05-04T00:33:47.903Z,101619.91
2023-05-04T00:38:52.571Z,101616.84
2023-05-04T00:43:55.049Z,101618.06
2023-05-04T00:48:59.721Z,101620.38
2023-05-04T00:54:02.422Z,101622.44
2023-05-04T00:59:05.001Z,101624.03
2023-05-04T01:04:07.796Z,101632.06
2023-05-04T01:09:25.674Z,101624.47
2023-05-04T01:14:30.407Z,101629.19
2023-05-04T01:19:33.787Z,101625.38
2023-05-04T01:24:38.849Z,101615.44
2023-05-04T01:30:00.476Z,101629.97
2023-05-04T01:35:03.681Z,101624.16
2023-05-04T01:40:07.185Z,101619.50
2023-05-04T01:45:10.286Z,101627.28
2023-05-04T01:50:13.861Z,101634.84
2023-05-04T01:55:16.563Z,101632.56
2023-05-04T02:00:19.384Z,101625.94
2023-05-04T02:05:22.047Z,101626.31
2023-05-04T02:10:24.610Z,101627.72
2023-05-04T02:15:27.273Z,101629.66
2023-05-04T02:20:31.210Z,101624.84
2023-05-04T02:25:33.698Z,101623.56
2023-05-04T02:30:36.342Z,101622.16
2023-05-04T02:35:39.056Z,101633.16
2023-05-04T02:40:41.835Z,101637.94
2023-05-04T02:45:44.445Z,101646.91
2023-05-04T02:50:47.070Z,101633.03
2023-05-04T02:55:49.921Z,101628.84
2023-05-04T03:00:56.450Z,101633.41
2023-05-04T03:05:58.986Z,101637.41
2023-05-04T03:11:01.562Z,101636.38
2023-05-04T03:16:05.956Z,101644.19
2023-05-04T03:21:08.831Z,101640.09
2023-05-04T03:26:11.903Z,101638.13
2023-05-04T03:31:14.515Z,101641.88
2023-05-04T03:36:17.662Z,101642.75
2023-05-04T03:41:21.207Z,101651.78
2023-05-04T03:46:23.825Z,101652.72
2023-05-04T03:51:28.087Z,101653.53
2023-05-04T03:56:30.836Z,101653.06
2023-05-04T04:01:34.096Z,101660.31
2023-05-04T04:06:38.092Z,101653.59
2023-05-04T04:11:41.073Z,101666.75
2023-05-04T04:16:43.792Z,101669.03
2023-05-04T04:21:46.428Z,101665.22
2023-05-04T04:26:48.916Z,101674.94
2023-05-04T04:31:51.981Z,101688.81
2023-05-04T04:36:54.690Z,101673.41
2023-05-04T04:41:57.323Z,101686.06
2023-05-04T04:46:59.888Z,101696.53
2023-05-04T04:52:03.143Z,101699.44
2023-05-04T04:57:06.345Z,101688.69
2023-05-04T05:02:09.949Z,101693.53
2023-05-04T05:07:12.529Z,101680.41
2023-05-04T05:12:15.018Z,101682.50
2023-05-04T05:17:18.428Z,101687.53
2023-05-04T05:22:21.193Z,101693.31
2023-05-04T05:27:23.688Z,101678.88
2023-05-04T05:32:26.239Z,101688.31
2023-05-04T05:37:28.806Z,101689.28
2023-05-04T05:42:31.329Z,101678.75
2023-05-04T05:47:33.942Z,101682.00
2023-05-04T05:52:36.665Z,101672.94
2023-05-04T05:57:39.146Z,101675.09
2023-05-04T06:02:42.060Z,101675.63
2023-05-04T06:07:44.398Z,101688.16
2023-05-04T06:12:47.407Z,101691.97
2023-05-04T06:17:50.132Z,101703.78
2023-05-04T06:22:52.607Z,101704.03
2023-05-04T06:27:55.026Z,101713.59
2023-05-04T06:32:57.694Z,101707.66
2023-05-04T06:38:00.235Z,101714.03
2023-05-04T06:43:02.749Z,101704.50
2023-05-04T06:48:05.549Z,101711.75
2023-05-04T06:53:09.288Z,101714.19
2023-05-04T06:58:12.232Z,101692.84
2023-05-04T07:03:15.135Z,101704.28
2023-05-04T07:08:18.149Z,101692.91
2023-05-04T07:13:20.941Z,101702.72
2023-05-04T07:18:23.386Z,101692.34
2023-05-04T07:23:25.818Z,101692.47
2023-05-04T07:28:28.408Z,101704.75
2023-05-04T07:33:31.301Z,101700.78
2023-05-04T07:38:34.234Z,101705.28
2023-05-04T07:43:37.793Z,101714.41
2023-05-04T07:48:41.609Z,101696.59
2023-05-04T07:53:44.294Z,101708.59
2023-05-04T07:58:47.889Z,101703.75
2023-05-04T08:03:50.545Z,101707.91
2023-05-04T08:08:53.158Z,101704.44
2023-05-04T08:13:55.443Z,101700.84
2023-05-04T08:18:57.944Z,101695.88
2023-05-04T08:24:00.727Z,101694.97
2023-05-04T08:29:13.526Z,101694.66
2023-05-04T08:34:16.819Z,101676.72
2023-05-04T08:39:19.666Z,101672.38
2023-05-04T08:44:23.077Z,101667.41
2023-05-04T08:49:27.206Z,101671.59
2023-05-04T08:54:30.287Z,101680.38
2023-05-04T08:59:33.641Z,101674.66
2023-05-04T09:04:36.548Z,101671.44
2023-05-04T09:09:39.097Z,101666.59
2023-05-04T09:14:41.944Z,101666.53
2023-05-04T09:19:45.118Z,101668.91
2023-05-04T09:24:48.068Z,101648.41
2023-05-04T09:29:54.492Z,101663.59
2023-05-04T09:34:57.085Z,101668.13
2023-05-04T09:40:01.007Z,101661.03
2023-05-04T09:45:06.390Z,101661.50
2023-05-04T09:50:20.893Z,101647.44
2023-05-04T09:55:25.541Z,101653.03
2023-05-04T10:00:28.801Z,101649.25
2023-05-04T10:05:31.683Z,101652.81
2023-05-04T10:10:36.300Z,101651.97
2023-05-04T10:16:02.047Z,101656.31
2023-05-04T10:21:26.753Z,101651.38
2023-05-04T10:26:48.019Z,101653.78
2023-05-04T10:31:51.477Z,101635.09
2023-05-04T10:36:54.236Z,101643.50
2023-05-04T10:42:00.687Z,101637.97
2023-05-04T10:47:08.473Z,101625.69
2023-05-04T10:52:16.551Z,101642.84
2023-05-04T10:57:19.288Z,101631.91
2023-05-04T11:02:30.323Z,101641.16
2023-05-04T11:07:38.849Z,101630.31
2023-05-04T11:12:43.840Z,101627.47
2023-05-04T11:17:55.456Z,101615.50
2023-05-04T11:22:58.992Z,101618.53
2023-05-04T11:28:01.834Z,101618.25
2023-05-04T11:33:14.587Z,101612.13
2023-05-04T11:38:23.119Z,101612.94
2023-05-04T11:43:25.998Z,101605.19
2023-05-04T11:48:32.369Z,101602.72
2023-05-04T11:53:39.576Z,101600.25
2023-05-04T11:58:42.542Z,101590.81
2023-05-04T12:03:53.754Z,101579.41
2023-05-04T12:09:02.704Z,101563.84
2023-05-04T12:14:07.258Z,101563.88
2023-05-04T12:19:13.335Z,101561.03
2023-05-04T12:24:16.267Z,101549.94
2023-05-04T12:29:18.784Z,101548.72
2023-05-04T12:34:21.448Z,101552.41
2023-05-04T12:39:24.354Z,101537.28
2023-05-04T12:44:27.054Z,101534.84
2023-05-04T12:49:29.592Z,101543.81
2023-05-04T12:54:32.133Z,101532.34
2023-05-04T12:59:34.616Z,101538.09
2023-05-04T13:04:37.188Z,101531.06
2023-05-04T13:09:40.367Z,101530.22
2023-05-04T13:14:42.838Z,101532.66
2023-05-04T13:19:45.263Z,101524.88
2023-05-04T13:24:47.658Z,101531.00
2023-05-04T13:29:50.356Z,101521.53
2023-05-04T13:34:52.986Z,101527.09
2023-05-04T13:39:55.537Z,101527.88
2023-05-04T13:44:58.320Z,101520.44
2023-05-04T13:50:00.975Z,101539.16
2023-05-04T13:55:04.183Z,101532.16
2023-05-04T14:00:08.762Z,101524.84
2023-05-04T14:05:14.355Z,101534.22
2023-05-04T14:10:17.066Z,101546.06
2023-05-04T14:15:23.020Z,101555.84
2023-05-04T14:20:25.707Z,101558.72
2023-05-04T14:25:28.300Z,101560.66
2023-05-04T14:30:31.905Z,101553.66
2023-05-04T14:35:37.650Z,101553.97
2023-05-04T14:40:40.338Z,101557.16
2023-05-04T14:45:43.117Z,101557.53
2023-05-04T14:50:45.629Z,101555.81
2023-05-04T14:55:48.674Z,101547.53
2023-05-04T15:00:51.248Z,101553.59
2023-05-04T15:05:53.654Z,101555.97
2023-05-04T15:10:59.605Z,101558.75
2023-05-04T15:16:02.328Z,101556.97
2023-05-04T15:21:04.935Z,101557.25
2023-05-04T15:26:07.408Z,101557.53
2023-05-04T15:31:10.518Z,101561.44
2023-05-04T15:36:13.031Z,101574.19
2023-05-04T15:41:15.502Z,101570.72
2023-05-04T15:46:17.953Z,101571.69
2023-05-04T15:51:21.238Z,101569.91
2023-05-04T15:56:23.881Z,101581.06
2023-05-04T16:01:26.495Z,101584.06
2023-05-04T16:06:29.364Z,101584.25
2023-05-04T16:11:33.405Z,101597.38
2023-05-04T16:16:35.951Z,101595.38
2023-05-04T16:21:38.738Z,101587.66
2023-05-04T16:26:41.404Z,101595.34
2023-05-04T16:31:47.681Z,101603.41
2023-05-04T16:36:50.141Z,101602.28
2023-05-04T16:41:52.724Z,101612.75
2023-05-04T16:46:55.409Z,101623.88
2023-05-04T16:51:57.996Z,101624.94
2023-05-04T16:57:00.627Z,101621.72
2023-05-04T17:02:03.327Z,101608.63
2023-05-04T17:07:06.467Z,101628.41
2023-05-04T17:12:09.773Z,101621.66
2023-05-04T17:17:12.208Z,101623.41
2023-05-04T17:22:14.799Z,101624.03
2023-05-04T17:27:17.324Z,101642.28
2023-05-04T17:32:20.029Z,101629.44
2023-05-04T17:37:22.611Z,101626.50
2023-05-04T17:42:25.089Z,101629.22
2023-05-04T17:47:27.590Z,101618.72
2023-05-04T17:52:30.076Z,101624.72
2023-05-04T17:57:32.720Z,101619.94
2023-05-04T18:02:35.277Z,101632.41
2023-05-04T18:07:38.013Z,101614.38
2023-05-04T18:12:40.853Z,101623.22
2023-05-04T18:17:43.731Z,101608.19
2023-05-04T18:22:47.091Z,101605.28
2023-05-04T18:27:49.772Z,101615.66
2023-05-04T18:32:52.324Z,101604.13
2023-05-04T18:37:54.867Z,101597.63
2023-05-04T18:42:57.411Z,101606.03
2023-05-04T18:47:59.982Z,101599.31
2023-05-04T18:53:05.590Z,101598.25
2023-05-04T18:58:08.170Z,101600.09
2023-05-04T19:03:10.665Z,101602.25
2023-05-04T19:08:13.226Z,101595.41
2023-05-04T19:13:16.684Z,101597.75
2023-05-04T19:18:19.375Z,101601.03
2023-05-04T19:23:22.256Z,101602.44
2023-05-04T19:28:24.821Z,101602.16
2023-05-04T19:33:40.538Z,101598.34
2023-05-04T19:38:50.155Z,101606.53
2023-05-04T19:43:52.894Z,101597.25
2023-05-04T19:48:55.426Z,101604.41
2023-05-04T19:53:57.958Z,101608.56
2023-05-04T19:59:00.822Z,101604.00
2023-05-04T20:04:03.468Z,101600.41
2023-05-04T20:09:05.934Z,101598.56
2023-05-04T20:14:08.425Z,101595.19
2023-05-04T20:19:10.999Z,101605.66
2023-05-04T20:24:13.676Z,101604.34
2023-05-04T20:29:16.845Z,101594.91
2023-05-04T20:34:19.405Z,101599.66
2023-05-04T20:39:21.965Z,101605.38
2023-05-04T20:44:24.637Z,101606.06
2023-05-04T20:49:27.163Z,101613.72
2023-05-04T20:54:29.689Z,101613.44
2023-05-04T20:59:32.223Z,101620.75
2023-05-04T21:04:34.712Z,101620.13
2023-05-04T21:09:37.305Z,101609.38
2023-05-04T21:14:39.829Z,101612.03
2023-05-04T21:19:42.532Z,101610.25
2023-05-04T21:24:46.823Z,101608.75
2023-05-04T21:29:49.214Z,101607.25
2023-05-04T21:34:55.349Z,101601.59
2023-05-04T21:39:57.833Z,101593.75
2023-05-04T21:45:00.437Z,101601.72
2023-05-04T21:50:04.194Z,101605.19
2023-05-04T21:55:07.540Z,101597.78
2023-05-04T22:00:18.108Z,101599.28
2023-05-04T22:05:23.582Z,101600.44
2023-05-04T22:10:26.083Z,101596.31
2023-05-04T22:15:38.237Z,101590.19
2023-05-04T22:20:48.998Z,101589.56
2023-05-04T22:25:51.738Z,101593.88
2023-05-04T22:30:54.142Z,101598.91
2023-05-04T22:35:56.514Z,101601.53
2023-05-04T22:40:58.895Z,101606.03
2023-05-04T22:46:01.368Z,101583.50
2023-05-04T22:51:03.905Z,101598.72
2023-05-04T22:56:06.497Z,101585.81
2023-05-04T23:01:13.394Z,101596.41
2023-05-04T23:06:15.974Z,101596.75
2023-05-04T23:11:22.248Z,101595.72
2023-05-04T23:16:24.672Z,101595.72
2023-05-04T23:21:27.679Z,101587.28
2023-05-04T23:26:30.148Z,101594.25
2023-05-04T23:31:32.617Z,101582.81
2023-05-04T23:36:35.017Z,101572.09
2023-05-04T23:41:37.476Z,101570.94
2023-05-04T23:46:39.859Z,101561.66
2023-05-04T23:51:42.253Z,101562.94
2023-05-04T23:56:44.611Z,101559.84
